Time;durP1;ratioP1;P1;durP2;ratioP2;P2;SDS_P1;SDS_P2;PMS_P1;PMS_P2;Temp;Humidity;BMP_temperature;BMP_pressure;BME280_temperature;BME280_humidity;BME280_pressure;Samples;Min_cycle;Max_cycle;Signal;HPM_P1;HPM_P2
2022/10/24 00:02:01;;;;;;;8.70;3.03;;;;;;;;;;5034783;28;20214;-75
2022/10/24 00:04:26;;;;;;;2.30;1.90;;;;;;;;;;5046271;28;20181;-75
2022/10/24 00:06:52;;;;;;;7.17;2.53;;;;;;;;;;5029180;28;20304;-75
2022/10/24 00:09:17;;;;;;;7.17;2.33;;;;;;;;;;5045315;28;20184;-75
2022/10/24 00:11:42;;;;;;;5.60;2.13;;;;;;;;;;5034229;28;20177;-75
2022/10/24 00:14:07;;;;;;;7.27;2.27;;;;;;;;;;5030875;28;20203;-75
2022/10/24 00:16:34;;;;;;;5.30;2.53;;;;;;;;;;5035714;28;20179;-75
2022/10/24 00:18:59;;;;;;;7.33;2.53;;;;;;;;;;5036336;28;20204;-75
2022/10/24 00:21:25;;;;;;;7.70;3.10;;;;;;;;;;5032738;28;20326;-75
2022/10/24 00:23:50;;;;;;;6.00;2.50;;;;;;;;;;5033316;28;20171;-75
2022/10/24 00:26:16;;;;;;;6.90;2.37;;;;;;;;;;5049685;28;20184;-75
2022/10/24 00:28:41;;;;;;;10.30;2.53;;;;;;;;;;5050799;28;20193;-75
2022/10/24 00:31:11;;;;;;;5.03;2.20;;;;;;;;;;5030814;28;20250;-75
2022/10/24 00:33:36;;;;;;;8.87;2.60;;;;;;;;;;5032351;28;20175;-75
2022/10/24 00:36:01;;;;;;;9.33;2.80;;;;;;;;;;5036502;28;20201;-75
2022/10/24 00:38:26;;;;;;;12.43;3.63;;;;;;;;;;5050770;28;20193;-75
2022/10/24 00:40:51;;;;;;;7.13;2.37;;;;;;;;;;5027358;28;20252;-76
2022/10/24 00:43:24;;;;;;;6.73;2.80;;;;;;;;;;5037312;28;20235;-76
2022/10/24 00:45:49;;;;;;;5.13;2.63;;;;;;;;;;5031419;28;20183;-75
2022/10/24 00:48:30;;;;;;;10.17;2.97;;;;;;;;;;5049278;28;20184;-75
2022/10/24 00:51:01;;;;;;;5.60;2.40;;;;;;;;;;5027059;28;20182;-75
2022/10/24 00:53:28;;;;;;;8.27;2.30;;;;;;;;;;5054288;28;20179;-75
2022/10/24 00:55:55;;;;;;;6.63;3.03;;;;;;;;;;5032528;28;20184;-75
2022/10/24 00:58:22;;;;;;;8.47;2.70;;;;;;;;;;5026553;28;20230;-75
2022/10/24 01:00:47;;;;;;;7.47;3.43;;;;;;;;;;5048140;28;20204;-75
2022/10/24 01:03:12;;;;;;;7.33;2.67;;;;;;;;;;5034836;28;20208;-75
2022/10/24 01:06:01;;;;;;;8.20;2.80;;;;;;;;;;5031793;28;20179;-75
2022/10/24 01:08:34;;;;;;;7.20;3.17;;;;;;;;;;5047877;28;20179;-75
2022/10/24 01:11:17;;;;;;;8.43;2.30;;;;;;;;;;5032524;28;20186;-75
2022/10/24 01:13:51;;;;;;;9.37;3.13;;;;;;;;;;5033618;28;20183;-75
2022/10/24 01:16:26;;;;;;;8.90;2.60;;;;;;;;;;5028159;28;20179;-75
2022/10/24 01:18:54;;;;;;;17.00;3.13;;;;;;;;;;5037513;28;20186;-75
2022/10/24 01:21:43;;;;;;;8.13;2.77;;;;;;;;;;5029552;28;20337;-75
2022/10/24 01:24:27;;;;;;;8.80;2.67;;;;;;;;;;5026258;28;20273;-75
2022/10/24 01:26:58;;;;;;;8.33;2.53;;;;;;;;;;5049441;28;20184;-74
2022/10/24 01:29:42;;;;;;;6.23;3.03;;;;;;;;;;5047853;28;20180;-75
2022/10/24 01:32:12;;;;;;;10.07;3.10;;;;;;;;;;5005507;28;20195;-75
2022/10/24 01:34:43;;;;;;;9.13;2.50;;;;;;;;;;5022423;28;20195;-75
2022/10/24 01:37:10;;;;;;;6.87;2.30;;;;;;;;;;5012805;28;20179;-75
2022/10/24 01:39:38;;;;;;;6.93;2.33;;;;;;;;;;5007987;28;20299;-75
2022/10/24 01:42:05;;;;;;;5.37;2.33;;;;;;;;;;5013183;28;20233;-75
2022/10/24 01:44:32;;;;;;;3.67;2.20;;;;;;;;;;5026214;28;20271;-75
2022/10/24 01:47:01;;;;;;;7.13;2.30;;;;;;;;;;5013343;28;20206;-75
2022/10/24 01:49:28;;;;;;;8.53;2.57;;;;;;;;;;5024551;28;20192;-75
2022/10/24 01:51:56;;;;;;;6.00;2.50;;;;;;;;;;5027129;28;20196;-75
2022/10/24 01:54:21;;;;;;;7.60;2.43;;;;;;;;;;5034503;28;20180;-75
2022/10/24 01:56:47;;;;;;;6.77;1.97;;;;;;;;;;5006196;28;20243;-75
2022/10/24 01:59:24;;;;;;;4.20;1.90;;;;;;;;;;5025727;28;20200;-75
2022/10/24 02:01:50;;;;;;;6.17;2.60;;;;;;;;;;5022925;28;20236;-75
2022/10/24 02:04:16;;;;;;;6.63;2.40;;;;;;;;;;5008376;28;20263;-75
2022/10/24 02:06:42;;;;;;;8.43;2.13;;;;;;;;;;5006910;28;20207;-75
2022/10/24 02:09:14;;;;;;;7.93;2.50;;;;;;;;;;5025004;28;20174;-75
2022/10/24 02:11:39;;;;;;;8.77;2.27;;;;;;;;;;5011715;28;20222;-75
2022/10/24 02:14:08;;;;;;;11.07;2.43;;;;;;;;;;5024826;28;20230;-75
2022/10/24 02:16:33;;;;;;;6.77;2.30;;;;;;;;;;5007492;28;20226;-75
2022/10/24 02:18:59;;;;;;;8.30;2.10;;;;;;;;;;5024610;28;20222;-76
2022/10/24 02:21:30;;;;;;;14.07;2.97;;;;;;;;;;5031261;28;20194;-75
2022/10/24 02:24:00;;;;;;;8.57;2.73;;;;;;;;;;5027536;28;20189;-75
2022/10/24 02:26:31;;;;;;;4.77;1.87;;;;;;;;;;5028627;28;20257;-75
2022/10/24 02:28:58;;;;;;;5.73;2.60;;;;;;;;;;5028251;28;20219;-75
2022/10/24 02:31:25;;;;;;;12.07;3.20;;;;;;;;;;5042504;28;20230;-76
2022/10/24 02:33:50;;;;;;;10.37;2.40;;;;;;;;;;5031676;28;20180;-74
2022/10/24 02:36:17;;;;;;;8.20;2.53;;;;;;;;;;5033827;28;20278;-75
2022/10/24 02:38:43;;;;;;;7.00;2.10;;;;;;;;;;5028746;28;20187;-75
2022/10/24 02:41:11;;;;;;;6.83;2.40;;;;;;;;;;5029715;28;20254;-75
2022/10/24 02:43:37;;;;;;;9.10;2.33;;;;;;;;;;5031179;28;20167;-76
2022/10/24 02:46:03;;;;;;;6.73;2.70;;;;;;;;;;5031034;28;20234;-74
2022/10/24 02:48:33;;;;;;;5.40;2.40;;;;;;;;;;5030868;28;20184;-75
2022/10/24 02:50:58;;;;;;;4.97;2.30;;;;;;;;;;5032041;28;20194;-76
2022/10/24 02:53:24;;;;;;;8.77;2.40;;;;;;;;;;5031541;28;20245;-75
2022/10/24 02:55:49;;;;;;;7.73;2.80;;;;;;;;;;5032546;28;20184;-75
2022/10/24 02:58:15;;;;;;;9.77;3.10;;;;;;;;;;5031900;28;20205;-75
2022/10/24 03:00:40;;;;;;;7.80;2.37;;;;;;;;;;5030181;28;20187;-74
2022/10/24 03:03:06;;;;;;;10.40;2.63;;;;;;;;;;5033113;28;20171;-76
2022/10/24 03:05:31;;;;;;;8.00;2.87;;;;;;;;;;5028758;28;20183;-75
2022/10/24 03:07:56;;;;;;;6.17;2.40;;;;;;;;;;5033415;28;20206;-75
2022/10/24 03:10:21;;;;;;;11.63;3.50;;;;;;;;;;5030326;28;20276;-75
2022/10/24 03:12:46;;;;;;;10.33;4.40;;;;;;;;;;5030663;28;20261;-74
2022/10/24 03:15:12;;;;;;;7.17;3.37;;;;;;;;;;5027934;28;20175;-75
2022/10/24 03:17:37;;;;;;;6.50;2.43;;;;;;;;;;5031427;28;20195;-75
2022/10/24 03:20:03;;;;;;;6.43;2.60;;;;;;;;;;5030619;28;20240;-75
2022/10/24 03:22:28;;;;;;;6.97;2.57;;;;;;;;;;5029690;28;20194;-75
2022/10/24 03:24:53;;;;;;;4.53;2.30;;;;;;;;;;5032534;28;20242;-75
2022/10/24 03:27:18;;;;;;;4.77;3.07;;;;;;;;;;5033675;28;20175;-75
2022/10/24 03:29:43;;;;;;;12.30;3.40;;;;;;;;;;5030476;28;20199;-75
2022/10/24 03:32:09;;;;;;;4.70;2.60;;;;;;;;;;5034178;28;20199;-75
2022/10/24 03:34:34;;;;;;;12.10;3.27;;;;;;;;;;5034513;28;20192;-76
2022/10/24 03:36:59;;;;;;;8.03;3.40;;;;;;;;;;5033918;28;20235;-75
2022/10/24 03:39:24;;;;;;;7.93;2.70;;;;;;;;;;5032862;28;20214;-75
2022/10/24 03:41:50;;;;;;;7.97;3.13;;;;;;;;;;5039530;28;20256;-75
2022/10/24 03:44:15;;;;;;;5.93;2.90;;;;;;;;;;5031127;28;20185;-75
2022/10/24 03:46:40;;;;;;;8.50;2.83;;;;;;;;;;5038304;28;20420;-75
2022/10/24 03:49:05;;;;;;;10.40;2.57;;;;;;;;;;5032779;28;20189;-75
2022/10/24 03:51:31;;;;;;;7.90;2.77;;;;;;;;;;5047532;28;20181;-75
2022/10/24 03:53:56;;;;;;;8.57;3.30;;;;;;;;;;5051464;28;20237;-75
2022/10/24 03:56:21;;;;;;;8.77;3.57;;;;;;;;;;5049183;28;20178;-76
2022/10/24 03:58:46;;;;;;;11.63;3.13;;;;;;;;;;5035780;28;20182;-75
2022/10/24 04:01:16;;;;;;;12.00;3.33;;;;;;;;;;5034905;28;20271;-75
2022/10/24 04:03:41;;;;;;;9.50;2.87;;;;;;;;;;5031989;28;20185;-75
2022/10/24 04:06:07;;;;;;;7.13;2.97;;;;;;;;;;5030164;28;20177;-75
2022/10/24 04:08:32;;;;;;;8.60;3.10;;;;;;;;;;5033246;28;20209;-75
2022/10/24 04:10:57;;;;;;;13.13;4.20;;;;;;;;;;5031715;28;20181;-75
2022/10/24 04:13:22;;;;;;;7.93;3.50;;;;;;;;;;5028396;28;20174;-75
2022/10/24 04:15:48;;;;;;;6.53;3.13;;;;;;;;;;5035316;28;20209;-75
2022/10/24 04:18:13;;;;;;;11.20;3.80;;;;;;;;;;5035520;28;20184;-75
2022/10/24 04:20:38;;;;;;;8.10;4.43;;;;;;;;;;5032835;28;20189;-75
2022/10/24 04:23:03;;;;;;;7.40;4.30;;;;;;;;;;5050760;28;20206;-75
2022/10/24 04:25:29;;;;;;;11.63;3.33;;;;;;;;;;5034155;28;20183;-75
2022/10/24 04:27:54;;;;;;;11.33;3.97;;;;;;;;;;5048386;28;20212;-75
2022/10/24 04:30:19;;;;;;;8.73;3.10;;;;;;;;;;5043319;28;20233;-75
2022/10/24 04:32:44;;;;;;;9.33;4.40;;;;;;;;;;5030870;28;20245;-75
2022/10/24 04:35:10;;;;;;;9.50;3.67;;;;;;;;;;5030619;28;20184;-75
2022/10/24 04:37:35;;;;;;;7.10;3.10;;;;;;;;;;5030493;28;20184;-75
2022/10/24 04:40:00;;;;;;;8.03;3.37;;;;;;;;;;5028691;28;20178;-75
2022/10/24 04:42:25;;;;;;;6.13;2.63;;;;;;;;;;5027543;28;20236;-74
2022/10/24 04:44:50;;;;;;;8.77;3.43;;;;;;;;;;5029991;28;20174;-86
2022/10/24 04:47:16;;;;;;;10.73;3.23;;;;;;;;;;5033823;28;20244;-75
2022/10/24 04:49:42;;;;;;;6.23;3.37;;;;;;;;;;5035986;28;20180;-75
2022/10/24 04:52:07;;;;;;;6.17;3.17;;;;;;;;;;5032996;28;20276;-74
2022/10/24 04:54:32;;;;;;;7.53;2.83;;;;;;;;;;5049501;28;20403;-75
2022/10/24 04:56:57;;;;;;;7.87;3.77;;;;;;;;;;5029293;28;20194;-75
2022/10/24 04:59:23;;;;;;;6.73;4.17;;;;;;;;;;5032305;28;20212;-75
2022/10/24 05:01:48;;;;;;;13.53;3.97;;;;;;;;;;5029773;28;20198;-75
2022/10/24 05:04:13;;;;;;;14.57;4.07;;;;;;;;;;5049240;28;20265;-76
2022/10/24 05:06:38;;;;;;;7.90;3.53;;;;;;;;;;5028640;28;20273;-75
2022/10/24 05:09:04;;;;;;;8.67;3.40;;;;;;;;;;5049773;28;20170;-76
2022/10/24 05:11:30;;;;;;;7.77;3.73;;;;;;;;;;5030061;28;20189;-77
2022/10/24 05:13:55;;;;;;;8.63;3.70;;;;;;;;;;5036322;28;20189;-76
2022/10/24 05:16:21;;;;;;;6.27;3.57;;;;;;;;;;5029612;28;20178;-75
2022/10/24 05:18:46;;;;;;;9.03;4.27;;;;;;;;;;5026795;28;20185;-76
2022/10/24 05:21:11;;;;;;;9.70;4.20;;;;;;;;;;5030538;28;20213;-77
2022/10/24 05:23:36;;;;;;;8.60;3.53;;;;;;;;;;5030113;28;20230;-76
2022/10/24 05:26:02;;;;;;;10.30;4.37;;;;;;;;;;5051157;28;20200;-77
2022/10/24 05:28:27;;;;;;;6.50;3.37;;;;;;;;;;5029028;28;20286;-76
2022/10/24 05:30:52;;;;;;;8.07;5.13;;;;;;;;;;5029353;28;20247;-76
2022/10/24 05:33:17;;;;;;;7.63;3.50;;;;;;;;;;5026743;28;20184;-77
2022/10/24 05:35:43;;;;;;;12.10;4.57;;;;;;;;;;5025031;28;20196;-76
2022/10/24 05:38:08;;;;;;;10.20;4.13;;;;;;;;;;5040811;28;20202;-76
2022/10/24 05:40:33;;;;;;;16.87;4.13;;;;;;;;;;5030099;28;20189;-76
2022/10/24 05:42:58;;;;;;;9.73;3.40;;;;;;;;;;5022162;28;20225;-77
2022/10/24 05:45:24;;;;;;;7.97;3.57;;;;;;;;;;5035788;28;20182;-76
2022/10/24 05:47:49;;;;;;;9.70;3.87;;;;;;;;;;5032699;28;20189;-76
2022/10/24 05:50:14;;;;;;;10.80;3.60;;;;;;;;;;5025511;28;20188;-76
2022/10/24 05:52:41;;;;;;;9.93;2.77;;;;;;;;;;5031308;28;20185;-76
2022/10/24 05:55:07;;;;;;;7.67;3.50;;;;;;;;;;5053737;28;20272;-76
2022/10/24 05:57:32;;;;;;;10.67;3.70;;;;;;;;;;5035372;28;20255;-76
2022/10/24 05:59:57;;;;;;;6.13;2.90;;;;;;;;;;5039847;28;20189;-76
2022/10/24 06:02:23;;;;;;;4.67;2.93;;;;;;;;;;5036980;28;20270;-76
2022/10/24 06:04:49;;;;;;;11.30;3.80;;;;;;;;;;5033997;28;20185;-76
2022/10/24 06:07:15;;;;;;;11.23;4.23;;;;;;;;;;5034460;28;20181;-76
2022/10/24 06:09:40;;;;;;;9.30;3.10;;;;;;;;;;5036941;28;20193;-75
2022/10/24 06:12:07;;;;;;;6.17;3.33;;;;;;;;;;5029745;28;20194;-78
2022/10/24 06:14:32;;;;;;;6.70;3.87;;;;;;;;;;5035770;28;20201;-76
2022/10/24 06:16:57;;;;;;;5.37;2.97;;;;;;;;;;5052430;28;20217;-76
2022/10/24 06:19:23;;;;;;;8.83;3.23;;;;;;;;;;5031803;28;20180;-76
2022/10/24 06:21:48;;;;;;;6.97;2.87;;;;;;;;;;5028447;28;20217;-76
2022/10/24 06:24:13;;;;;;;5.07;2.93;;;;;;;;;;5044228;28;20180;-76
2022/10/24 06:26:38;;;;;;;6.63;3.70;;;;;;;;;;5032790;28;20215;-76
2022/10/24 06:29:03;;;;;;;12.67;3.13;;;;;;;;;;5030960;28;20271;-76
2022/10/24 06:31:29;;;;;;;6.67;3.40;;;;;;;;;;5029093;28;20229;-76
2022/10/24 06:33:54;;;;;;;5.47;2.60;;;;;;;;;;5030155;28;20216;-76
2022/10/24 06:36:19;;;;;;;4.90;2.67;;;;;;;;;;5030818;28;20178;-77
2022/10/24 06:38:45;;;;;;;8.90;3.27;;;;;;;;;;5023868;28;20250;-76
2022/10/24 06:41:10;;;;;;;6.63;2.83;;;;;;;;;;5023320;28;20195;-76
2022/10/24 06:43:36;;;;;;;6.13;3.07;;;;;;;;;;5028161;28;20183;-77
2022/10/24 06:46:06;;;;;;;8.50;3.70;;;;;;;;;;5031567;28;20245;-77
2022/10/24 06:48:31;;;;;;;6.00;3.27;;;;;;;;;;5024565;28;20177;-75
2022/10/24 06:50:56;;;;;;;6.30;2.80;;;;;;;;;;5028053;28;20329;-76
2022/10/24 06:53:21;;;;;;;7.77;2.30;;;;;;;;;;5027600;28;20175;-76
2022/10/24 06:55:47;;;;;;;3.70;2.43;;;;;;;;;;5027850;28;20189;-75
2022/10/24 06:58:12;;;;;;;4.07;2.43;;;;;;;;;;5024836;28;20178;-77
2022/10/24 07:00:37;;;;;;;7.27;2.80;;;;;;;;;;5030207;28;20286;-75
2022/10/24 07:03:02;;;;;;;3.83;3.03;;;;;;;;;;5031896;28;20208;-76
2022/10/24 07:05:28;;;;;;;5.00;3.33;;;;;;;;;;5025251;28;20181;-76
2022/10/24 07:07:53;;;;;;;6.40;3.63;;;;;;;;;;5033233;28;20224;-76
2022/10/24 07:10:18;;;;;;;4.40;3.17;;;;;;;;;;5030288;28;20173;-77
2022/10/24 07:12:43;;;;;;;5.23;2.30;;;;;;;;;;5027741;28;20192;-76
2022/10/24 07:15:09;;;;;;;5.97;2.57;;;;;;;;;;5026666;28;20178;-75
2022/10/24 07:17:41;;;;;;;7.47;3.07;;;;;;;;;;5031468;28;20181;-76
2022/10/24 07:20:07;;;;;;;7.10;2.70;;;;;;;;;;5025676;28;20192;-76
2022/10/24 07:22:32;;;;;;;6.93;2.50;;;;;;;;;;5029553;28;20240;-77
2022/10/24 07:24:58;;;;;;;6.50;2.53;;;;;;;;;;5034076;28;20180;-76
2022/10/24 07:27:23;;;;;;;7.43;2.90;;;;;;;;;;5029353;28;20202;-76
2022/10/24 07:29:50;;;;;;;7.90;2.77;;;;;;;;;;5031489;28;20238;-76
2022/10/24 07:32:15;;;;;;;4.97;2.43;;;;;;;;;;5033857;28;20253;-76
2022/10/24 07:34:40;;;;;;;4.27;2.83;;;;;;;;;;5034352;28;20284;-76
2022/10/24 07:37:06;;;;;;;7.30;2.47;;;;;;;;;;5035676;28;20211;-77
2022/10/24 07:39:31;;;;;;;4.63;2.57;;;;;;;;;;5034163;28;20190;-76
2022/10/24 07:41:56;;;;;;;5.33;3.27;;;;;;;;;;5035353;28;20262;-86
2022/10/24 07:44:21;;;;;;;6.10;2.50;;;;;;;;;;5025699;28;20181;-83
2022/10/24 07:46:46;;;;;;;6.33;2.87;;;;;;;;;;5037191;28;20204;-82
2022/10/24 07:49:12;;;;;;;6.63;2.80;;;;;;;;;;5035096;28;20181;-83
2022/10/24 07:51:37;;;;;;;3.87;2.77;;;;;;;;;;5034190;28;20213;-83
2022/10/24 07:54:02;;;;;;;4.13;2.20;;;;;;;;;;5034378;28;20286;-83
2022/10/24 07:56:27;;;;;;;5.97;2.73;;;;;;;;;;5034278;28;20264;-82
2022/10/24 07:58:54;;;;;;;4.03;2.30;;;;;;;;;;5034127;28;20248;-83
2022/10/24 08:01:21;;;;;;;4.33;2.50;;;;;;;;;;5033676;28;20209;-83
2022/10/24 08:03:46;;;;;;;8.57;2.57;;;;;;;;;;5034749;28;20174;-83
2022/10/24 08:06:16;;;;;;;5.17;2.80;;;;;;;;;;5033224;28;20246;-83
2022/10/24 08:08:42;;;;;;;8.97;3.00;;;;;;;;;;5040131;28;20184;-83
2022/10/24 08:11:12;;;;;;;5.33;2.50;;;;;;;;;;5034076;28;20270;-84
2022/10/24 08:13:37;;;;;;;5.97;2.53;;;;;;;;;;5034550;28;20189;-84
2022/10/24 08:16:07;;;;;;;9.80;2.67;;;;;;;;;;5037696;28;20181;-84
2022/10/24 08:18:32;;;;;;;4.30;2.10;;;;;;;;;;5038417;28;20184;-83
2022/10/24 08:21:04;;;;;;;5.00;2.37;;;;;;;;;;5034368;28;20184;-84
2022/10/24 08:23:30;;;;;;;4.70;2.60;;;;;;;;;;5034065;28;20174;-84
2022/10/24 08:25:55;;;;;;;6.37;2.80;;;;;;;;;;5034536;28;20294;-84
2022/10/24 08:28:22;;;;;;;8.83;3.70;;;;;;;;;;5051866;28;20203;-83
2022/10/24 08:30:57;;;;;;;7.03;3.20;;;;;;;;;;5035117;28;20280;-84
2022/10/24 08:33:22;;;;;;;6.77;2.93;;;;;;;;;;5035383;28;20177;-84
2022/10/24 08:35:47;;;;;;;6.10;2.80;;;;;;;;;;5034336;28;20181;-83
2022/10/24 08:38:12;;;;;;;4.40;2.90;;;;;;;;;;5033888;28;20173;-85
2022/10/24 08:40:38;;;;;;;5.17;3.13;;;;;;;;;;5033688;28;20190;-84
2022/10/24 08:43:03;;;;;;;6.40;3.60;;;;;;;;;;5037738;28;20200;-83
2022/10/24 08:45:34;;;;;;;9.93;3.97;;;;;;;;;;5032625;28;20180;-84
2022/10/24 08:48:05;;;;;;;6.77;3.30;;;;;;;;;;5034807;28;20184;-83
2022/10/24 08:50:32;;;;;;;11.87;4.03;;;;;;;;;;5047376;28;20182;-84
2022/10/24 08:53:13;;;;;;;8.70;4.93;;;;;;;;;;5033578;28;20181;-84
2022/10/24 08:55:41;;;;;;;7.30;3.70;;;;;;;;;;5033774;28;20195;-84
2022/10/24 08:58:10;;;;;;;9.30;4.50;;;;;;;;;;5033400;28;20231;-84
2022/10/24 09:00:38;;;;;;;7.93;4.27;;;;;;;;;;5032747;28;20184;-83
2022/10/24 09:03:25;;;;;;;6.47;3.23;;;;;;;;;;5032559;28;20212;-83
2022/10/24 09:05:53;;;;;;;7.70;5.20;;;;;;;;;;5048839;28;20184;-84
2022/10/24 09:08:37;;;;;;;7.33;5.93;;;;;;;;;;5039122;28;20177;-84
2022/10/24 09:11:04;;;;;;;10.83;6.00;;;;;;;;;;5030687;28;20228;-84
2022/10/24 09:13:30;;;;;;;4.23;3.50;;;;;;;;;;5033218;28;20176;-84
2022/10/24 09:15:55;;;;;;;9.10;4.27;;;;;;;;;;5027032;28;20177;-83
2022/10/24 09:18:20;;;;;;;10.77;4.80;;;;;;;;;;5050719;28;20230;-84
2022/10/24 09:20:47;;;;;;;11.30;4.97;;;;;;;;;;5032680;28;20186;-84
2022/10/24 09:23:12;;;;;;;8.73;4.30;;;;;;;;;;5034829;28;20228;-83
2022/10/24 09:25:40;;;;;;;7.30;4.10;;;;;;;;;;5033334;28;20181;-84
2022/10/24 09:28:06;;;;;;;11.40;4.40;;;;;;;;;;5032507;28;20199;-84
2022/10/24 09:30:32;;;;;;;9.67;4.00;;;;;;;;;;5028900;28;20233;-84
2022/10/24 09:32:58;;;;;;;6.80;3.20;;;;;;;;;;5030131;28;20190;-84
2022/10/24 09:35:24;;;;;;;8.87;4.00;;;;;;;;;;5029848;28;20239;-84
2022/10/24 09:37:49;;;;;;;7.03;3.97;;;;;;;;;;5030239;28;20183;-83
2022/10/24 09:40:21;;;;;;;9.67;4.20;;;;;;;;;;5033097;28;20185;-84
2022/10/24 09:43:07;;;;;;;8.00;3.77;;;;;;;;;;5028498;28;20269;-84
2022/10/24 09:45:43;;;;;;;6.10;2.80;;;;;;;;;;5021648;28;20184;-84
2022/10/24 09:48:17;;;;;;;6.00;3.10;;;;;;;;;;5029985;28;20185;-84
2022/10/24 09:50:43;;;;;;;5.40;2.80;;;;;;;;;;5027362;28;20178;-84
2022/10/24 09:53:19;;;;;;;8.97;3.23;;;;;;;;;;5029336;28;20178;-85
2022/10/24 09:55:45;;;;;;;6.67;3.53;;;;;;;;;;5023298;28;20182;-84
2022/10/24 09:58:16;;;;;;;8.60;3.70;;;;;;;;;;5027633;28;20265;-85
2022/10/24 10:00:41;;;;;;;6.63;3.67;;;;;;;;;;5028190;28;20189;-85
2022/10/24 10:03:13;;;;;;;9.40;3.00;;;;;;;;;;5013317;28;20209;-84
2022/10/24 10:06:05;;;;;;;5.27;3.33;;;;;;;;;;5028703;28;20175;-84
2022/10/24 10:08:32;;;;;;;4.27;2.90;;;;;;;;;;5023098;28;20189;-84
2022/10/24 10:11:17;;;;;;;8.03;2.83;;;;;;;;;;5029735;28;20189;-84
2022/10/24 10:13:53;;;;;;;4.87;3.17;;;;;;;;;;5022922;28;20215;-83
2022/10/24 10:16:24;;;;;;;6.27;2.50;;;;;;;;;;5030760;28;20504;-85
2022/10/24 10:18:50;;;;;;;4.70;3.07;;;;;;;;;;5029297;28;20179;-84
2022/10/24 10:21:17;;;;;;;7.37;3.33;;;;;;;;;;5027979;28;20231;-84
2022/10/24 10:23:44;;;;;;;4.83;3.20;;;;;;;;;;5023642;28;20189;-84
2022/10/24 10:26:15;;;;;;;7.93;2.80;;;;;;;;;;5029345;28;20186;-83
2022/10/24 10:28:52;;;;;;;5.47;3.23;;;;;;;;;;5029089;28;20329;-84
2022/10/24 10:31:20;;;;;;;8.30;3.23;;;;;;;;;;5030886;28;20237;-84
2022/10/24 10:33:59;;;;;;;3.70;2.63;;;;;;;;;;5030758;28;20205;-83
2022/10/24 10:36:33;;;;;;;5.33;2.87;;;;;;;;;;5028448;28;20194;-84
2022/10/24 10:39:07;;;;;;;7.40;2.90;;;;;;;;;;5031280;28;20216;-84
2022/10/24 10:41:44;;;;;;;5.43;3.20;;;;;;;;;;5030769;28;20228;-84
2022/10/24 10:44:13;;;;;;;4.83;2.60;;;;;;;;;;5032373;28;20200;-84
2022/10/24 10:46:55;;;;;;;3.97;2.60;;;;;;;;;;5025809;28;20177;-84
2022/10/24 10:49:24;;;;;;;4.03;2.77;;;;;;;;;;5031211;28;20228;-84
2022/10/24 10:51:50;;;;;;;6.20;2.80;;;;;;;;;;5032153;28;20197;-85
2022/10/24 10:54:32;;;;;;;4.77;3.17;;;;;;;;;;5032732;28;20193;-84
2022/10/24 10:57:05;;;;;;;6.03;3.30;;;;;;;;;;5031637;28;20194;-86
2022/10/24 10:59:40;;;;;;;7.93;3.03;;;;;;;;;;5025842;28;20182;-85
2022/10/24 11:02:14;;;;;;;4.63;2.87;;;;;;;;;;5031824;28;21265;-85
2022/10/24 11:04:57;;;;;;;4.00;2.93;;;;;;;;;;5021662;28;20201;-84
2022/10/24 11:07:46;;;;;;;6.07;2.93;;;;;;;;;;5031849;28;20177;-83
2022/10/24 11:10:14;;;;;;;6.83;2.90;;;;;;;;;;5025947;28;20178;-85
2022/10/24 11:12:43;;;;;;;11.50;7.27;;;;;;;;;;5029595;28;20186;-84
2022/10/24 11:15:18;;;;;;;4.10;3.40;;;;;;;;;;5026151;28;20253;-84
2022/10/24 11:18:02;;;;;;;4.63;3.33;;;;;;;;;;5026149;28;20251;-85
2022/10/24 11:20:30;;;;;;;5.43;2.60;;;;;;;;;;5031977;28;20190;-84
2022/10/24 11:22:55;;;;;;;5.90;3.03;;;;;;;;;;5032076;28;20208;-85
2022/10/24 11:25:23;;;;;;;5.07;2.67;;;;;;;;;;5031983;28;20208;-84
2022/10/24 11:28:03;;;;;;;5.57;2.87;;;;;;;;;;5032326;28;20264;-84
2022/10/24 11:30:41;;;;;;;3.50;2.27;;;;;;;;;;5031750;28;20244;-86
2022/10/24 11:33:13;;;;;;;4.83;2.50;;;;;;;;;;5030484;28;20459;-85
2022/10/24 11:35:41;;;;;;;6.70;2.77;;;;;;;;;;5031912;28;20268;-85
2022/10/24 11:38:18;;;;;;;3.03;2.60;;;;;;;;;;5035790;28;20217;-84
2022/10/24 11:40:44;;;;;;;4.83;2.67;;;;;;;;;;5031049;28;20186;-85
2022/10/24 11:43:22;;;;;;;9.03;3.47;;;;;;;;;;5030752;28;20221;-85
2022/10/24 11:45:57;;;;;;;3.63;2.60;;;;;;;;;;5031788;28;20259;-84
2022/10/24 11:48:22;;;;;;;4.17;2.60;;;;;;;;;;5031633;28;20182;-85
2022/10/24 11:51:06;;;;;;;5.43;2.40;;;;;;;;;;5031291;28;20372;-85
2022/10/24 11:53:32;;;;;;;4.50;3.00;;;;;;;;;;5028290;28;20171;-84
2022/10/24 11:56:00;;;;;;;5.07;2.73;;;;;;;;;;5034401;28;20185;-85
2022/10/24 11:58:26;;;;;;;7.47;3.30;;;;;;;;;;5029555;28;20429;-85
2022/10/24 12:01:06;;;;;;;6.37;3.33;;;;;;;;;;5031136;28;20197;-84
2022/10/24 12:03:52;;;;;;;7.03;3.00;;;;;;;;;;5027056;28;20202;-85
2022/10/24 12:06:36;;;;;;;5.53;3.27;;;;;;;;;;5025126;28;20438;-85
2022/10/24 12:09:10;;;;;;;5.87;3.03;;;;;;;;;;5034407;28;20188;-84
2022/10/24 12:11:38;;;;;;;5.00;3.00;;;;;;;;;;5038824;28;20179;-84
2022/10/24 12:14:22;;;;;;;4.13;2.97;;;;;;;;;;5036827;28;20210;-85
2022/10/24 12:16:57;;;;;;;5.50;3.13;;;;;;;;;;5028852;28;20236;-83
2022/10/24 12:19:22;;;;;;;9.93;3.80;;;;;;;;;;5030213;28;20231;-86
2022/10/24 12:21:52;;;;;;;5.67;3.73;;;;;;;;;;5030238;28;20230;-85
2022/10/24 12:24:19;;;;;;;9.00;3.03;;;;;;;;;;5031270;28;20184;-85
2022/10/24 12:26:52;;;;;;;4.60;2.77;;;;;;;;;;5034290;28;20298;-85
2022/10/24 12:29:22;;;;;;;6.10;3.10;;;;;;;;;;5031632;28;20489;-85
2022/10/24 12:31:48;;;;;;;5.60;3.23;;;;;;;;;;5016088;28;20239;-84
2022/10/24 12:34:21;;;;;;;5.07;2.97;;;;;;;;;;5027601;28;20195;-84
2022/10/24 12:37:07;;;;;;;7.00;2.90;;;;;;;;;;5020641;28;20200;-84
2022/10/24 12:39:34;;;;;;;6.03;3.00;;;;;;;;;;5024837;28;20191;-85
2022/10/24 12:41:59;;;;;;;8.30;3.70;;;;;;;;;;5009894;28;20219;-86
2022/10/24 12:44:30;;;;;;;7.43;3.20;;;;;;;;;;5011109;28;20180;-86
2022/10/24 12:46:56;;;;;;;6.03;2.93;;;;;;;;;;5030506;28;20176;-85
2022/10/24 12:49:29;;;;;;;5.70;3.00;;;;;;;;;;5026699;28;20206;-85
2022/10/24 12:51:55;;;;;;;9.60;3.50;;;;;;;;;;5002116;28;20255;-86
2022/10/24 12:54:39;;;;;;;6.37;3.13;;;;;;;;;;5026898;28;20173;-85
2022/10/24 12:57:04;;;;;;;6.13;3.00;;;;;;;;;;5021572;28;20196;-81
2022/10/24 12:59:43;;;;;;;9.17;3.30;;;;;;;;;;5005327;28;20246;-81
2022/10/24 13:02:11;;;;;;;5.03;3.00;;;;;;;;;;5008591;28;20211;-81
2022/10/24 13:04:51;;;;;;;9.13;3.33;;;;;;;;;;5009984;28;20293;-80
2022/10/24 13:07:39;;;;;;;6.30;3.50;;;;;;;;;;5026414;28;20278;-81
2022/10/24 13:10:10;;;;;;;12.10;4.13;;;;;;;;;;5008157;28;20199;-81
2022/10/24 13:12:50;;;;;;;6.07;3.07;;;;;;;;;;5020394;28;20182;-80
2022/10/24 13:15:22;;;;;;;6.77;3.13;;;;;;;;;;5007196;28;20183;-80
2022/10/24 13:18:06;;;;;;;5.37;2.57;;;;;;;;;;5011777;28;20213;-81
2022/10/24 13:20:45;;;;;;;5.97;3.00;;;;;;;;;;5006506;28;20283;-81
2022/10/24 13:23:23;;;;;;;8.17;3.83;;;;;;;;;;5004895;28;20200;-81
2022/10/24 13:25:50;;;;;;;6.93;3.10;;;;;;;;;;5009649;28;20217;-81
2022/10/24 13:28:18;;;;;;;9.70;3.47;;;;;;;;;;5015587;28;20280;-82
2022/10/24 13:30:43;;;;;;;7.10;3.67;;;;;;;;;;5025285;28;20244;-80
2022/10/24 13:33:27;;;;;;;6.67;3.20;;;;;;;;;;5033793;28;20190;-81
2022/10/24 13:35:53;;;;;;;7.17;2.93;;;;;;;;;;5026798;28;20173;-81
2022/10/24 13:38:20;;;;;;;5.90;3.37;;;;;;;;;;5037484;28;20311;-81
2022/10/24 13:40:46;;;;;;;4.93;2.90;;;;;;;;;;5031918;28;20180;-81
2022/10/24 13:43:18;;;;;;;7.63;3.20;;;;;;;;;;5038205;28;20199;-81
2022/10/24 13:46:03;;;;;;;8.67;2.90;;;;;;;;;;5038754;28;20188;-81
2022/10/24 13:48:29;;;;;;;6.07;3.00;;;;;;;;;;5027787;28;20206;-80
2022/10/24 13:50:55;;;;;;;6.03;2.97;;;;;;;;;;5032828;28;20174;-81
2022/10/24 13:53:26;;;;;;;4.53;3.03;;;;;;;;;;5029975;28;20186;-81
2022/10/24 13:55:52;;;;;;;9.33;2.90;;;;;;;;;;5032159;28;20185;-81
2022/10/24 13:58:18;;;;;;;8.10;2.90;;;;;;;;;;5031536;28;20174;-80
2022/10/24 14:00:44;;;;;;;5.80;3.27;;;;;;;;;;5038644;28;20182;-81
2022/10/24 14:03:12;;;;;;;6.43;3.10;;;;;;;;;;5028703;28;20200;-81
2022/10/24 14:05:39;;;;;;;4.93;2.97;;;;;;;;;;5025793;28;20536;-81
2022/10/24 14:08:05;;;;;;;4.50;2.90;;;;;;;;;;5032011;28;20178;-80
2022/10/24 14:10:31;;;;;;;8.53;3.13;;;;;;;;;;5028685;28;20239;-80
2022/10/24 14:12:57;;;;;;;5.50;3.27;;;;;;;;;;5049497;28;20185;-80
2022/10/24 14:15:27;;;;;;;5.40;3.00;;;;;;;;;;5039216;28;20181;-81
2022/10/24 14:17:53;;;;;;;4.90;3.33;;;;;;;;;;5032324;28;20200;-80
2022/10/24 14:20:19;;;;;;;6.60;3.33;;;;;;;;;;5041888;28;20216;-81
2022/10/24 14:22:44;;;;;;;6.90;3.60;;;;;;;;;;5037774;28;20215;-80
2022/10/24 14:25:36;;;;;;;4.80;3.27;;;;;;;;;;5039155;28;20189;-81
2022/10/24 14:28:08;;;;;;;6.60;3.20;;;;;;;;;;5029734;28;20217;-80
2022/10/24 14:30:33;;;;;;;5.27;2.80;;;;;;;;;;5030768;28;20230;-81
2022/10/24 14:33:14;;;;;;;6.57;3.53;;;;;;;;;;5035550;28;20178;-81
2022/10/24 14:35:40;;;;;;;5.47;3.20;;;;;;;;;;5038535;28;20183;-81
2022/10/24 14:38:05;;;;;;;5.63;3.00;;;;;;;;;;5030942;28;20177;-80
2022/10/24 14:40:31;;;;;;;7.53;3.43;;;;;;;;;;5035730;28;20185;-80
2022/10/24 14:42:56;;;;;;;6.70;3.40;;;;;;;;;;5032286;28;20286;-80
2022/10/24 14:45:29;;;;;;;5.53;2.90;;;;;;;;;;5038321;28;20187;-81
2022/10/24 14:47:55;;;;;;;6.33;2.80;;;;;;;;;;5054173;28;20232;-81
2022/10/24 14:50:34;;;;;;;8.13;2.80;;;;;;;;;;5038066;28;20271;-80